sensor_id;sensor_type;location;lat;lon;timestamp;temperature;humidity
49413;DHT22;35493;50.276;9.372;2023-12-28T00:00:17;3.70;87.20
49413;DHT22;35493;50.276;9.372;2023-12-28T00:02:50;3.80;86.90
49413;DHT22;35493;50.276;9.372;2023-12-28T00:05:23;3.70;86.90
49413;DHT22;35493;50.276;9.372;2023-12-28T00:07:56;3.70;86.90
49413;DHT22;35493;50.276;9.372;2023-12-28T00:10:30;3.70;86.90
49413;DHT22;35493;50.276;9.372;2023-12-28T00:13:04;3.60;86.70
49413;DHT22;35493;50.276;9.372;2023-12-28T00:15:37;3.50;87.20
49413;DHT22;35493;50.276;9.372;2023-12-28T00:18:10;3.40;87.40
49413;DHT22;35493;50.276;9.372;2023-12-28T00:20:43;3.50;87.30
49413;DHT22;35493;50.276;9.372;2023-12-28T00:23:16;3.60;87.00
49413;DHT22;35493;50.276;9.372;2023-12-28T00:25:50;3.50;87.00
49413;DHT22;35493;50.276;9.372;2023-12-28T00:28:24;3.50;86.90
49413;DHT22;35493;50.276;9.372;2023-12-28T00:30:51;3.60;86.90
49413;DHT22;35493;50.276;9.372;2023-12-28T00:33:24;3.60;86.80
49413;DHT22;35493;50.276;9.372;2023-12-28T00:35:57;3.50;86.70
49413;DHT22;35493;50.276;9.372;2023-12-28T00:38:30;3.50;86.70
49413;DHT22;35493;50.276;9.372;2023-12-28T00:41:05;3.50;86.70
49413;DHT22;35493;50.276;9.372;2023-12-28T00:43:38;3.40;86.70
49413;DHT22;35493;50.276;9.372;2023-12-28T00:46:11;3.40;86.60
49413;DHT22;35493;50.276;9.372;2023-12-28T00:48:44;3.50;86.60
49413;DHT22;35493;50.276;9.372;2023-12-28T00:51:17;3.50;86.90
49413;DHT22;35493;50.276;9.372;2023-12-28T00:53:50;3.50;86.70
49413;DHT22;35493;50.276;9.372;2023-12-28T00:56:24;3.50;86.70
49413;DHT22;35493;50.276;9.372;2023-12-28T00:58:58;3.50;86.90
49413;DHT22;35493;50.276;9.372;2023-12-28T01:01:33;3.50;87.00
49413;DHT22;35493;50.276;9.372;2023-12-28T01:04:06;3.50;87.30
49413;DHT22;35493;50.276;9.372;2023-12-28T01:06:40;3.50;87.20
49413;DHT22;35493;50.276;9.372;2023-12-28T01:09:13;3.60;87.30
49413;DHT22;35493;50.276;9.372;2023-12-28T01:11:47;3.60;87.30
49413;DHT22;35493;50.276;9.372;2023-12-28T01:14:21;3.60;87.30
49413;DHT22;35493;50.276;9.372;2023-12-28T01:16:54;3.60;87.30
49413;DHT22;35493;50.276;9.372;2023-12-28T01:19:27;3.60;87.20
49413;DHT22;35493;50.276;9.372;2023-12-28T01:22:00;3.50;87.30
49413;DHT22;35493;50.276;9.372;2023-12-28T01:24:33;3.50;87.40
49413;DHT22;35493;50.276;9.372;2023-12-28T01:27:07;3.50;87.30
49413;DHT22;35493;50.276;9.372;2023-12-28T01:29:41;3.50;87.40
49413;DHT22;35493;50.276;9.372;2023-12-28T01:32:14;3.50;87.40
49413;DHT22;35493;50.276;9.372;2023-12-28T01:34:47;3.60;87.50
49413;DHT22;35493;50.276;9.372;2023-12-28T01:37:20;3.50;87.70
49413;DHT22;35493;50.276;9.372;2023-12-28T01:39:53;3.50;87.80
49413;DHT22;35493;50.276;9.372;2023-12-28T01:42:27;3.60;87.70
49413;DHT22;35493;50.276;9.372;2023-12-28T01:45:02;3.70;87.80
49413;DHT22;35493;50.276;9.372;2023-12-28T01:47:36;3.60;87.90
49413;DHT22;35493;50.276;9.372;2023-12-28T01:50:09;3.70;88.10
49413;DHT22;35493;50.276;9.372;2023-12-28T01:52:42;3.70;88.00
49413;DHT22;35493;50.276;9.372;2023-12-28T01:55:09;3.70;88.10
49413;DHT22;35493;50.276;9.372;2023-12-28T01:57:43;3.60;88.30
49413;DHT22;35493;50.276;9.372;2023-12-28T02:00:17;3.60;88.50
49413;DHT22;35493;50.276;9.372;2023-12-28T02:02:44;3.60;88.60
49413;DHT22;35493;50.276;9.372;2023-12-28T02:05:17;3.60;88.70
49413;DHT22;35493;50.276;9.372;2023-12-28T02:07:50;3.70;88.80
49413;DHT22;35493;50.276;9.372;2023-12-28T02:10:23;3.70;88.70
49413;DHT22;35493;50.276;9.372;2023-12-28T02:12:58;3.70;88.60
49413;DHT22;35493;50.276;9.372;2023-12-28T02:15:32;3.70;88.80
49413;DHT22;35493;50.276;9.372;2023-12-28T02:18:07;3.70;88.70
49413;DHT22;35493;50.276;9.372;2023-12-28T02:20:42;3.80;88.70
49413;DHT22;35493;50.276;9.372;2023-12-28T02:23:16;3.80;88.70
49413;DHT22;35493;50.276;9.372;2023-12-28T02:25:51;3.90;88.70
49413;DHT22;35493;50.276;9.372;2023-12-28T02:28:24;3.90;88.60
49413;DHT22;35493;50.276;9.372;2023-12-28T02:30:57;3.90;89.00
49413;DHT22;35493;50.276;9.372;2023-12-28T02:33:33;3.90;88.70
49413;DHT22;35493;50.276;9.372;2023-12-28T02:36:09;4.00;88.70
49413;DHT22;35493;50.276;9.372;2023-12-28T02:38:42;4.00;88.90
49413;DHT22;35493;50.276;9.372;2023-12-28T02:41:18;4.10;88.90
49413;DHT22;35493;50.276;9.372;2023-12-28T02:43:51;4.20;88.90
49413;DHT22;35493;50.276;9.372;2023-12-28T02:46:24;4.30;88.80
49413;DHT22;35493;50.276;9.372;2023-12-28T02:48:57;4.40;89.00
49413;DHT22;35493;50.276;9.372;2023-12-28T02:51:32;4.40;89.10
49413;DHT22;35493;50.276;9.372;2023-12-28T02:54:05;4.40;89.00
49413;DHT22;35493;50.276;9.372;2023-12-28T02:56:40;4.40;89.00
49413;DHT22;35493;50.276;9.372;2023-12-28T02:59:13;4.50;89.10
49413;DHT22;35493;50.276;9.372;2023-12-28T03:01:46;4.60;89.20
49413;DHT22;35493;50.276;9.372;2023-12-28T03:04:19;4.60;89.00
49413;DHT22;35493;50.276;9.372;2023-12-28T03:06:46;4.70;88.80
49413;DHT22;35493;50.276;9.372;2023-12-28T03:09:19;4.70;89.00
49413;DHT22;35493;50.276;9.372;2023-12-28T03:11:54;4.70;89.20
49413;DHT22;35493;50.276;9.372;2023-12-28T03:14:27;4.80;89.00
49413;DHT22;35493;50.276;9.372;2023-12-28T03:16:54;4.80;89.00
49413;DHT22;35493;50.276;9.372;2023-12-28T03:19:28;4.90;89.40
49413;DHT22;35493;50.276;9.372;2023-12-28T03:22:01;4.90;89.40
49413;DHT22;35493;50.276;9.372;2023-12-28T03:24:36;5.00;89.40
49413;DHT22;35493;50.276;9.372;2023-12-28T03:27:11;5.10;89.20
49413;DHT22;35493;50.276;9.372;2023-12-28T03:29:44;5.10;89.10
49413;DHT22;35493;50.276;9.372;2023-12-28T03:32:17;5.20;89.60
49413;DHT22;35493;50.276;9.372;2023-12-28T03:34:50;5.30;89.60
49413;DHT22;35493;50.276;9.372;2023-12-28T03:37:23;5.30;89.50
49413;DHT22;35493;50.276;9.372;2023-12-28T03:39:57;5.40;89.90
49413;DHT22;35493;50.276;9.372;2023-12-28T03:42:32;5.50;90.10
49413;DHT22;35493;50.276;9.372;2023-12-28T03:45:06;5.60;90.20
49413;DHT22;35493;50.276;9.372;2023-12-28T03:47:39;5.60;90.30
49413;DHT22;35493;50.276;9.372;2023-12-28T03:50:12;5.60;90.30
49413;DHT22;35493;50.276;9.372;2023-12-28T03:52:39;5.70;90.30
49413;DHT22;35493;50.276;9.372;2023-12-28T03:55:12;5.70;90.40
49413;DHT22;35493;50.276;9.372;2023-12-28T03:57:47;5.70;90.70
49413;DHT22;35493;50.276;9.372;2023-12-28T04:00:20;5.90;90.70
49413;DHT22;35493;50.276;9.372;2023-12-28T04:02:57;5.90;90.50
49413;DHT22;35493;50.276;9.372;2023-12-28T04:05:31;5.90;90.50
49413;DHT22;35493;50.276;9.372;2023-12-28T04:08:05;6.10;90.60
49413;DHT22;35493;50.276;9.372;2023-12-28T04:10:38;6.10;90.80
49413;DHT22;35493;50.276;9.372;2023-12-28T04:13:13;6.10;90.90
49413;DHT22;35493;50.276;9.372;2023-12-28T04:15:46;6.10;91.20
49413;DHT22;35493;50.276;9.372;2023-12-28T04:18:13;6.20;91.50
49413;DHT22;35493;50.276;9.372;2023-12-28T04:20:47;6.10;91.60
49413;DHT22;35493;50.276;9.372;2023-12-28T04:23:20;6.20;91.70
49413;DHT22;35493;50.276;9.372;2023-12-28T04:25:53;6.20;91.90
49413;DHT22;35493;50.276;9.372;2023-12-28T04:28:28;6.20;91.90
49413;DHT22;35493;50.276;9.372;2023-12-28T04:31:02;6.20;92.00
49413;DHT22;35493;50.276;9.372;2023-12-28T04:33:35;6.20;92.00
49413;DHT22;35493;50.276;9.372;2023-12-28T04:36:08;6.20;92.00
49413;DHT22;35493;50.276;9.372;2023-12-28T04:38:41;6.30;92.10
49413;DHT22;35493;50.276;9.372;2023-12-28T04:41:14;6.30;92.10
49413;DHT22;35493;50.276;9.372;2023-12-28T04:43:49;6.40;92.10
49413;DHT22;35493;50.276;9.372;2023-12-28T04:46:22;6.40;92.10
49413;DHT22;35493;50.276;9.372;2023-12-28T04:48:55;6.40;92.10
49413;DHT22;35493;50.276;9.372;2023-12-28T04:51:28;6.40;91.80
49413;DHT22;35493;50.276;9.372;2023-12-28T04:54:01;6.30;91.70
49413;DHT22;35493;50.276;9.372;2023-12-28T04:56:34;6.40;91.60
49413;DHT22;35493;50.276;9.372;2023-12-28T04:59:15;6.30;91.50
49413;DHT22;35493;50.276;9.372;2023-12-28T05:01:48;6.40;91.50
49413;DHT22;35493;50.276;9.372;2023-12-28T05:04:21;6.40;91.70
49413;DHT22;35493;50.276;9.372;2023-12-28T05:06:54;6.40;91.80
49413;DHT22;35493;50.276;9.372;2023-12-28T05:09:27;6.40;91.90
49413;DHT22;35493;50.276;9.372;2023-12-28T05:12:00;6.40;91.80
49413;DHT22;35493;50.276;9.372;2023-12-28T05:14:36;6.50;92.00
49413;DHT22;35493;50.276;9.372;2023-12-28T05:17:09;6.50;92.10
49413;DHT22;35493;50.276;9.372;2023-12-28T05:19:42;6.60;92.10
49413;DHT22;35493;50.276;9.372;2023-12-28T05:22:15;6.50;92.00
49413;DHT22;35493;50.276;9.372;2023-12-28T05:24:48;6.60;92.00
49413;DHT22;35493;50.276;9.372;2023-12-28T05:27:21;6.60;92.00
49413;DHT22;35493;50.276;9.372;2023-12-28T05:29:56;6.60;92.00
49413;DHT22;35493;50.276;9.372;2023-12-28T05:32:29;6.60;91.90
49413;DHT22;35493;50.276;9.372;2023-12-28T05:34:56;6.70;91.90
49413;DHT22;35493;50.276;9.372;2023-12-28T05:37:29;6.70;91.80
49413;DHT22;35493;50.276;9.372;2023-12-28T05:40:02;6.70;91.70
49413;DHT22;35493;50.276;9.372;2023-12-28T05:42:35;6.80;91.60
49413;DHT22;35493;50.276;9.372;2023-12-28T05:45:11;6.80;91.60
49413;DHT22;35493;50.276;9.372;2023-12-28T05:47:44;6.80;91.50
49413;DHT22;35493;50.276;9.372;2023-12-28T05:50:17;6.90;91.50
49413;DHT22;35493;50.276;9.372;2023-12-28T05:52:50;6.90;91.40
49413;DHT22;35493;50.276;9.372;2023-12-28T05:55:23;6.90;91.40
49413;DHT22;35493;50.276;9.372;2023-12-28T05:57:56;6.90;91.40
49413;DHT22;35493;50.276;9.372;2023-12-28T06:00:31;6.90;91.50
49413;DHT22;35493;50.276;9.372;2023-12-28T06:03:10;6.90;91.60
49413;DHT22;35493;50.276;9.372;2023-12-28T06:05:43;7.00;91.60
49413;DHT22;35493;50.276;9.372;2023-12-28T06:08:16;7.00;91.50
49413;DHT22;35493;50.276;9.372;2023-12-28T06:10:49;7.00;91.60
49413;DHT22;35493;50.276;9.372;2023-12-28T06:13:22;7.10;91.60
49413;DHT22;35493;50.276;9.372;2023-12-28T06:15:57;7.00;91.50
49413;DHT22;35493;50.276;9.372;2023-12-28T06:18:30;7.00;91.50
49413;DHT22;35493;50.276;9.372;2023-12-28T06:21:03;7.10;91.70
49413;DHT22;35493;50.276;9.372;2023-12-28T06:23:37;7.00;91.50
49413;DHT22;35493;50.276;9.372;2023-12-28T06:26:10;7.10;91.70
49413;DHT22;35493;50.276;9.372;2023-12-28T06:28:43;7.10;91.70
49413;DHT22;35493;50.276;9.372;2023-12-28T06:31:18;7.20;91.70
49413;DHT22;35493;50.276;9.372;2023-12-28T06:33:50;7.10;91.60
49413;DHT22;35493;50.276;9.372;2023-12-28T06:36:23;7.20;91.70
49413;DHT22;35493;50.276;9.372;2023-12-28T06:38:56;7.20;91.70
49413;DHT22;35493;50.276;9.372;2023-12-28T06:41:29;7.20;91.70
49413;DHT22;35493;50.276;9.372;2023-12-28T06:43:56;7.30;91.80
49413;DHT22;35493;50.276;9.372;2023-12-28T06:46:31;7.30;91.70
49413;DHT22;35493;50.276;9.372;2023-12-28T06:49:04;7.30;91.70
49413;DHT22;35493;50.276;9.372;2023-12-28T06:51:37;7.30;91.70
49413;DHT22;35493;50.276;9.372;2023-12-28T06:54:10;7.40;91.70
49413;DHT22;35493;50.276;9.372;2023-12-28T06:56:43;7.40;91.50
49413;DHT22;35493;50.276;9.372;2023-12-28T06:59:16;7.40;91.60
49413;DHT22;35493;50.276;9.372;2023-12-28T07:01:51;7.40;91.60
49413;DHT22;35493;50.276;9.372;2023-12-28T07:04:24;7.40;91.60
49413;DHT22;35493;50.276;9.372;2023-12-28T07:07:00;7.50;91.50
49413;DHT22;35493;50.276;9.372;2023-12-28T07:09:33;7.50;91.50
49413;DHT22;35493;50.276;9.372;2023-12-28T07:12:06;7.50;91.50
49413;DHT22;35493;50.276;9.372;2023-12-28T07:14:39;7.50;91.50
49413;DHT22;35493;50.276;9.372;2023-12-28T07:17:14;7.50;91.50
49413;DHT22;35493;50.276;9.372;2023-12-28T07:19:48;7.50;91.50
49413;DHT22;35493;50.276;9.372;2023-12-28T07:22:15;7.50;91.50
49413;DHT22;35493;50.276;9.372;2023-12-28T07:24:48;7.50;91.50
49413;DHT22;35493;50.276;9.372;2023-12-28T07:27:21;7.50;91.50
49413;DHT22;35493;50.276;9.372;2023-12-28T07:29:54;7.50;91.50
49413;DHT22;35493;50.276;9.372;2023-12-28T07:32:29;7.60;91.40
49413;DHT22;35493;50.276;9.372;2023-12-28T07:35:02;7.50;91.30
49413;DHT22;35493;50.276;9.372;2023-12-28T07:37:35;7.60;91.30
49413;DHT22;35493;50.276;9.372;2023-12-28T07:40:08;7.60;91.20
49413;DHT22;35493;50.276;9.372;2023-12-28T07:42:41;7.60;91.10
49413;DHT22;35493;50.276;9.372;2023-12-28T07:45:14;7.60;91.10
49413;DHT22;35493;50.276;9.372;2023-12-28T07:47:51;7.60;91.00
49413;DHT22;35493;50.276;9.372;2023-12-28T07:50:24;7.60;91.00
49413;DHT22;35493;50.276;9.372;2023-12-28T07:52:57;7.60;91.00
49413;DHT22;35493;50.276;9.372;2023-12-28T07:55:30;7.70;91.00
49413;DHT22;35493;50.276;9.372;2023-12-28T07:58:03;7.60;91.00
49413;DHT22;35493;50.276;9.372;2023-12-28T08:00:36;7.60;91.00
49413;DHT22;35493;50.276;9.372;2023-12-28T08:03:12;7.60;90.90
49413;DHT22;35493;50.276;9.372;2023-12-28T08:05:47;7.70;90.80
49413;DHT22;35493;50.276;9.372;2023-12-28T08:08:20;7.70;90.70
49413;DHT22;35493;50.276;9.372;2023-12-28T08:10:53;7.80;90.70
49413;DHT22;35493;50.276;9.372;2023-12-28T08:13:26;7.80;90.70
49413;DHT22;35493;50.276;9.372;2023-12-28T08:15:59;7.80;90.70
49413;DHT22;35493;50.276;9.372;2023-12-28T08:18:34;7.80;90.60
49413;DHT22;35493;50.276;9.372;2023-12-28T08:21:07;7.80;90.70
49413;DHT22;35493;50.276;9.372;2023-12-28T08:23:40;7.80;90.70
49413;DHT22;35493;50.276;9.372;2023-12-28T08:26:13;7.90;90.50
49413;DHT22;35493;50.276;9.372;2023-12-28T08:28:46;7.90;90.40
49413;DHT22;35493;50.276;9.372;2023-12-28T08:31:19;7.80;90.40
49413;DHT22;35493;50.276;9.372;2023-12-28T08:33:54;7.90;90.30
49413;DHT22;35493;50.276;9.372;2023-12-28T08:36:27;7.90;90.30
49413;DHT22;35493;50.276;9.372;2023-12-28T08:39:01;8.00;90.20
49413;DHT22;35493;50.276;9.372;2023-12-28T08:41:35;8.10;90.10
49413;DHT22;35493;50.276;9.372;2023-12-28T08:44:08;8.10;89.90
49413;DHT22;35493;50.276;9.372;2023-12-28T08:46:41;8.10;89.80
49413;DHT22;35493;50.276;9.372;2023-12-28T08:49:16;8.10;89.70
49413;DHT22;35493;50.276;9.372;2023-12-28T08:51:49;8.20;89.60
49413;DHT22;35493;50.276;9.372;2023-12-28T08:54:22;8.20;89.50
49413;DHT22;35493;50.276;9.372;2023-12-28T08:56:55;8.20;89.50
49413;DHT22;35493;50.276;9.372;2023-12-28T08:59:28;8.20;89.50
49413;DHT22;35493;50.276;9.372;2023-12-28T09:02:01;8.20;89.50
49413;DHT22;35493;50.276;9.372;2023-12-28T09:04:36;8.20;89.40
49413;DHT22;35493;50.276;9.372;2023-12-28T09:07:10;8.30;89.30
49413;DHT22;35493;50.276;9.372;2023-12-28T09:09:44;8.30;89.10
49413;DHT22;35493;50.276;9.372;2023-12-28T09:12:17;8.30;89.10
49413;DHT22;35493;50.276;9.372;2023-12-28T09:14:50;8.30;89.00
49413;DHT22;35493;50.276;9.372;2023-12-28T09:17:24;8.40;88.80
49413;DHT22;35493;50.276;9.372;2023-12-28T09:19:52;8.40;88.80
49413;DHT22;35493;50.276;9.372;2023-12-28T09:22:25;8.40;88.70
49413;DHT22;35493;50.276;9.372;2023-12-28T09:24:58;8.50;88.60
49413;DHT22;35493;50.276;9.372;2023-12-28T09:27:31;8.50;88.60
49413;DHT22;35493;50.276;9.372;2023-12-28T09:30:05;8.50;88.70
49413;DHT22;35493;50.276;9.372;2023-12-28T09:32:38;8.50;88.70
49413;DHT22;35493;50.276;9.372;2023-12-28T09:35:13;8.50;88.70
49413;DHT22;35493;50.276;9.372;2023-12-28T09:37:39;8.50;88.60
49413;DHT22;35493;50.276;9.372;2023-12-28T09:40:12;8.60;88.50
49413;DHT22;35493;50.276;9.372;2023-12-28T09:42:47;8.60;88.40
49413;DHT22;35493;50.276;9.372;2023-12-28T09:45:21;8.60;88.40
49413;DHT22;35493;50.276;9.372;2023-12-28T09:47:54;8.60;88.40
49413;DHT22;35493;50.276;9.372;2023-12-28T09:50:29;8.70;88.20
49413;DHT22;35493;50.276;9.372;2023-12-28T09:53:02;8.70;88.10
49413;DHT22;35493;50.276;9.372;2023-12-28T09:55:35;8.70;88.10
49413;DHT22;35493;50.276;9.372;2023-12-28T09:58:09;8.70;88.00
49413;DHT22;35493;50.276;9.372;2023-12-28T10:00:43;8.70;88.00
49413;DHT22;35493;50.276;9.372;2023-12-28T10:03:17;8.70;87.90
49413;DHT22;35493;50.276;9.372;2023-12-28T10:05:51;8.70;87.90
49413;DHT22;35493;50.276;9.372;2023-12-28T10:08:24;8.80;87.80
49413;DHT22;35493;50.276;9.372;2023-12-28T10:10:57;8.80;87.70
49413;DHT22;35493;50.276;9.372;2023-12-28T10:13:33;8.80;87.80
49413;DHT22;35493;50.276;9.372;2023-12-28T10:16:07;8.80;87.70
49413;DHT22;35493;50.276;9.372;2023-12-28T10:18:40;8.80;87.60
49413;DHT22;35493;50.276;9.372;2023-12-28T10:21:16;8.90;87.50
49413;DHT22;35493;50.276;9.372;2023-12-28T10:23:49;8.90;87.50
49413;DHT22;35493;50.276;9.372;2023-12-28T10:26:22;8.90;87.50
49413;DHT22;35493;50.276;9.372;2023-12-28T10:28:57;9.00;87.40
49413;DHT22;35493;50.276;9.372;2023-12-28T10:31:31;9.00;87.20
49413;DHT22;35493;50.276;9.372;2023-12-28T10:34:04;9.00;87.20
49413;DHT22;35493;50.276;9.372;2023-12-28T10:36:39;9.00;87.20
49413;DHT22;35493;50.276;9.372;2023-12-28T10:39:14;9.00;87.10
49413;DHT22;35493;50.276;9.372;2023-12-28T10:41:49;9.10;86.90
49413;DHT22;35493;50.276;9.372;2023-12-28T10:44:23;9.10;86.80
49413;DHT22;35493;50.276;9.372;2023-12-28T10:47:01;9.10;86.80
49413;DHT22;35493;50.276;9.372;2023-12-28T10:49:34;9.20;86.80
49413;DHT22;35493;50.276;9.372;2023-12-28T10:52:10;9.20;86.80
49413;DHT22;35493;50.276;9.372;2023-12-28T10:54:47;9.20;86.70
49413;DHT22;35493;50.276;9.372;2023-12-28T10:57:27;9.20;86.60
49413;DHT22;35493;50.276;9.372;2023-12-28T11:00:08;9.20;86.50
49413;DHT22;35493;50.276;9.372;2023-12-28T11:02:52;9.20;86.40
49413;DHT22;35493;50.276;9.372;2023-12-28T11:05:25;9.30;86.30
49413;DHT22;35493;50.276;9.372;2023-12-28T11:08:00;9.30;86.30
49413;DHT22;35493;50.276;9.372;2023-12-28T11:10:34;9.30;86.10
49413;DHT22;35493;50.276;9.372;2023-12-28T11:13:08;9.30;86.00
49413;DHT22;35493;50.276;9.372;2023-12-28T11:15:43;9.30;85.90
49413;DHT22;35493;50.276;9.372;2023-12-28T11:18:16;9.30;85.80
49413;DHT22;35493;50.276;9.372;2023-12-28T11:20:50;9.40;85.70
49413;DHT22;35493;50.276;9.372;2023-12-28T11:23:25;9.40;85.50
49413;DHT22;35493;50.276;9.372;2023-12-28T11:25:58;9.40;85.40
49413;DHT22;35493;50.276;9.372;2023-12-28T11:28:31;9.40;85.10
49413;DHT22;35493;50.276;9.372;2023-12-28T11:31:04;9.40;85.00
49413;DHT22;35493;50.276;9.372;2023-12-28T11:33:43;9.50;85.20
49413;DHT22;35493;50.276;9.372;2023-12-28T11:36:32;9.50;85.10
49413;DHT22;35493;50.276;9.372;2023-12-28T11:39:08;9.50;84.90
49413;DHT22;35493;50.276;9.372;2023-12-28T11:41:50;9.50;84.70
49413;DHT22;35493;50.276;9.372;2023-12-28T11:44:25;9.60;84.70
49413;DHT22;35493;50.276;9.372;2023-12-28T11:46:58;9.60;84.60
49413;DHT22;35493;50.276;9.372;2023-12-28T11:49:31;9.60;84.30
49413;DHT22;35493;50.276;9.372;2023-12-28T11:52:05;9.60;84.20
49413;DHT22;35493;50.276;9.372;2023-12-28T11:54:39;9.60;84.30
49413;DHT22;35493;50.276;9.372;2023-12-28T11:57:21;9.60;84.20
49413;DHT22;35493;50.276;9.372;2023-12-28T11:59:52;9.70;84.10
49413;DHT22;35493;50.276;9.372;2023-12-28T12:05:29;9.70;83.90
49413;DHT22;35493;50.276;9.372;2023-12-28T12:08:03;9.70;84.00
49413;DHT22;35493;50.276;9.372;2023-12-28T12:10:38;9.70;83.80
49413;DHT22;35493;50.276;9.372;2023-12-28T12:13:10;9.70;83.60
49413;DHT22;35493;50.276;9.372;2023-12-28T12:15:44;9.70;83.70
49413;DHT22;35493;50.276;9.372;2023-12-28T12:18:16;9.70;83.70
49413;DHT22;35493;50.276;9.372;2023-12-28T12:20:49;9.70;83.70
49413;DHT22;35493;50.276;9.372;2023-12-28T12:23:22;9.70;83.60
49413;DHT22;35493;50.276;9.372;2023-12-28T12:25:57;9.70;83.50
49413;DHT22;35493;50.276;9.372;2023-12-28T12:28:30;9.70;83.50
49413;DHT22;35493;50.276;9.372;2023-12-28T12:31:03;9.80;83.40
49413;DHT22;35493;50.276;9.372;2023-12-28T12:33:36;9.80;83.50
49413;DHT22;35493;50.276;9.372;2023-12-28T12:36:09;9.80;83.40
49413;DHT22;35493;50.276;9.372;2023-12-28T12:38:42;9.80;83.40
49413;DHT22;35493;50.276;9.372;2023-12-28T12:41:17;9.80;83.40
49413;DHT22;35493;50.276;9.372;2023-12-28T12:43:50;9.80;83.30
49413;DHT22;35493;50.276;9.372;2023-12-28T12:46:23;9.80;83.30
49413;DHT22;35493;50.276;9.372;2023-12-28T12:48:57;9.80;83.20
49413;DHT22;35493;50.276;9.372;2023-12-28T12:51:29;9.90;83.60
49413;DHT22;35493;50.276;9.372;2023-12-28T12:54:03;9.90;83.10
49413;DHT22;35493;50.276;9.372;2023-12-28T12:56:37;10.00;83.10
49413;DHT22;35493;50.276;9.372;2023-12-28T12:59:11;10.00;83.20
49413;DHT22;35493;50.276;9.372;2023-12-28T13:01:47;10.20;82.60
49413;DHT22;35493;50.276;9.372;2023-12-28T13:04:21;10.20;82.30
49413;DHT22;35493;50.276;9.372;2023-12-28T13:06:54;10.20;82.00
49413;DHT22;35493;50.276;9.372;2023-12-28T13:09:26;10.20;81.90
49413;DHT22;35493;50.276;9.372;2023-12-28T13:12:01;10.20;81.70
49413;DHT22;35493;50.276;9.372;2023-12-28T13:14:41;10.20;81.70
49413;DHT22;35493;50.276;9.372;2023-12-28T13:17:16;10.30;81.40
49413;DHT22;35493;50.276;9.372;2023-12-28T13:19:50;10.30;81.10
49413;DHT22;35493;50.276;9.372;2023-12-28T13:22:23;10.30;81.20
49413;DHT22;35493;50.276;9.372;2023-12-28T13:24:56;10.40;81.10
49413;DHT22;35493;50.276;9.372;2023-12-28T13:27:30;10.40;81.10
49413;DHT22;35493;50.276;9.372;2023-12-28T13:30:04;10.40;81.00
49413;DHT22;35493;50.276;9.372;2023-12-28T13:32:37;10.30;81.10
49413;DHT22;35493;50.276;9.372;2023-12-28T13:35:11;10.30;81.00
49413;DHT22;35493;50.276;9.372;2023-12-28T13:37:43;10.30;81.20
49413;DHT22;35493;50.276;9.372;2023-12-28T13:40:17;10.30;81.20
49413;DHT22;35493;50.276;9.372;2023-12-28T13:42:45;10.30;81.80
49413;DHT22;35493;50.276;9.372;2023-12-28T13:45:18;10.20;81.80
49413;DHT22;35493;50.276;9.372;2023-12-28T13:47:44;10.20;81.80
49413;DHT22;35493;50.276;9.372;2023-12-28T13:50:18;10.30;81.70
49413;DHT22;35493;50.276;9.372;2023-12-28T13:52:52;10.30;81.70
49413;DHT22;35493;50.276;9.372;2023-12-28T13:55:18;10.30;81.70
49413;DHT22;35493;50.276;9.372;2023-12-28T13:57:53;10.30;81.70
49413;DHT22;35493;50.276;9.372;2023-12-28T14:00:27;10.30;81.80
49413;DHT22;35493;50.276;9.372;2023-12-28T14:03:00;10.30;81.80
49413;DHT22;35493;50.276;9.372;2023-12-28T14:05:26;10.30;81.90
49413;DHT22;35493;50.276;9.372;2023-12-28T14:08:00;10.30;81.80
49413;DHT22;35493;50.276;9.372;2023-12-28T14:10:33;10.30;81.80
49413;DHT22;35493;50.276;9.372;2023-12-28T14:13:01;10.20;82.00
49413;DHT22;35493;50.276;9.372;2023-12-28T14:15:35;10.30;81.90
49413;DHT22;35493;50.276;9.372;2023-12-28T14:18:10;10.30;82.20
49413;DHT22;35493;50.276;9.372;2023-12-28T14:20:36;10.30;82.20
49413;DHT22;35493;50.276;9.372;2023-12-28T14:23:10;10.30;82.30
49413;DHT22;35493;50.276;9.372;2023-12-28T14:25:44;10.30;82.30
49413;DHT22;35493;50.276;9.372;2023-12-28T14:28:24;10.20;82.40
49413;DHT22;35493;50.276;9.372;2023-12-28T14:30:58;10.20;82.50
49413;DHT22;35493;50.276;9.372;2023-12-28T14:33:32;10.20;82.60
49413;DHT22;35493;50.276;9.372;2023-12-28T14:36:05;10.10;83.00
49413;DHT22;35493;50.276;9.372;2023-12-28T14:38:42;10.10;82.90
49413;DHT22;35493;50.276;9.372;2023-12-28T14:41:15;10.10;82.80
49413;DHT22;35493;50.276;9.372;2023-12-28T14:43:49;10.10;82.90
49413;DHT22;35493;50.276;9.372;2023-12-28T14:46:16;10.10;83.00
49413;DHT22;35493;50.276;9.372;2023-12-28T14:48:49;10.10;83.20
49413;DHT22;35493;50.276;9.372;2023-12-28T14:51:15;10.10;83.20
49413;DHT22;35493;50.276;9.372;2023-12-28T14:53:49;10.10;83.40
49413;DHT22;35493;50.276;9.372;2023-12-28T14:56:22;10.00;83.50
49413;DHT22;35493;50.276;9.372;2023-12-28T14:58:56;10.00;83.70
49413;DHT22;35493;50.276;9.372;2023-12-28T15:01:30;10.00;83.90
49413;DHT22;35493;50.276;9.372;2023-12-28T15:04:03;10.00;83.90
49413;DHT22;35493;50.276;9.372;2023-12-28T15:06:36;10.00;84.00
49413;DHT22;35493;50.276;9.372;2023-12-28T15:09:09;9.90;84.10
49413;DHT22;35493;50.276;9.372;2023-12-28T15:11:42;9.90;84.20
49413;DHT22;35493;50.276;9.372;2023-12-28T15:14:16;9.90;84.30
49413;DHT22;35493;50.276;9.372;2023-12-28T15:16:50;9.90;84.40
49413;DHT22;35493;50.276;9.372;2023-12-28T15:19:23;9.90;84.50
49413;DHT22;35493;50.276;9.372;2023-12-28T15:21:58;9.90;84.60
49413;DHT22;35493;50.276;9.372;2023-12-28T15:24:31;9.90;84.80
49413;DHT22;35493;50.276;9.372;2023-12-28T15:27:13;9.90;84.90
49413;DHT22;35493;50.276;9.372;2023-12-28T15:29:47;9.90;85.00
49413;DHT22;35493;50.276;9.372;2023-12-28T15:32:21;9.90;85.10
49413;DHT22;35493;50.276;9.372;2023-12-28T15:34:54;9.90;85.10
49413;DHT22;35493;50.276;9.372;2023-12-28T15:37:34;9.90;85.20
49413;DHT22;35493;50.276;9.372;2023-12-28T15:40:07;9.90;85.20
49413;DHT22;35493;50.276;9.372;2023-12-28T15:42:41;9.90;85.20
49413;DHT22;35493;50.276;9.372;2023-12-28T15:45:15;9.90;85.40
49413;DHT22;35493;50.276;9.372;2023-12-28T15:47:49;9.80;85.40
49413;DHT22;35493;50.276;9.372;2023-12-28T15:50:22;9.90;85.50
49413;DHT22;35493;50.276;9.372;2023-12-28T15:52:56;9.80;85.50
49413;DHT22;35493;50.276;9.372;2023-12-28T15:55:30;9.90;85.70
49413;DHT22;35493;50.276;9.372;2023-12-28T15:58:03;9.80;85.70
49413;DHT22;35493;50.276;9.372;2023-12-28T16:00:45;9.80;85.60
49413;DHT22;35493;50.276;9.372;2023-12-28T16:03:18;9.80;85.50
49413;DHT22;35493;50.276;9.372;2023-12-28T16:05:51;9.80;85.50
49413;DHT22;35493;50.276;9.372;2023-12-28T16:08:24;9.80;85.40
49413;DHT22;35493;50.276;9.372;2023-12-28T16:10:57;9.80;85.40
49413;DHT22;35493;50.276;9.372;2023-12-28T16:13:32;9.80;85.40
49413;DHT22;35493;50.276;9.372;2023-12-28T16:16:06;9.70;85.60
49413;DHT22;35493;50.276;9.372;2023-12-28T16:18:42;9.70;85.50
49413;DHT22;35493;50.276;9.372;2023-12-28T16:21:15;9.70;85.40
49413;DHT22;35493;50.276;9.372;2023-12-28T16:23:48;9.70;85.40
49413;DHT22;35493;50.276;9.372;2023-12-28T16:26:21;9.70;85.40